Time;durP1;ratioP1;P1;durP2;ratioP2;P2;SDS_P1;SDS_P2;PMS_P1;PMS_P2;Temp;Humidity;BMP_temperature;BMP_pressure;BME280_temperature;BME280_humidity;BME280_pressure;Samples;Min_cycle;Max_cycle;Signal;HPM_P1;HPM_P2
2021/12/27 00:00:34;;;;;;;23.73;11.40;;;;;;;;;;5075657;28;20029;-76
2021/12/27 00:03:01;;;;;;;20.98;10.75;;;;;;;;;;5082969;28;20037;-75
2021/12/27 00:05:28;;;;;;;17.45;10.35;;;;;;;;;;5078014;28;20025;-75
2021/12/27 00:07:54;;;;;;;19.17;10.02;;;;;;;;;;5063916;28;20031;-75
2021/12/27 00:10:21;;;;;;;21.52;11.18;;;;;;;;;;5078187;28;20031;-75
2021/12/27 00:12:47;;;;;;;19.63;10.40;;;;;;;;;;5080141;28;20473;-75
2021/12/27 00:15:14;;;;;;;19.83;11.20;;;;;;;;;;5083375;28;20040;-75
2021/12/27 00:17:43;;;;;;;16.88;8.27;;;;;;;;;;5079127;28;20478;-75
2021/12/27 00:20:11;;;;;;;23.52;11.35;;;;;;;;;;5076852;28;20082;-75
2021/12/27 00:22:38;;;;;;;19.70;11.40;;;;;;;;;;5060909;28;20028;-74
2021/12/27 00:25:05;;;;;;;21.08;10.48;;;;;;;;;;5082267;28;20051;-75
2021/12/27 00:27:31;;;;;;;20.25;10.50;;;;;;;;;;5076698;28;20470;-75
2021/12/27 00:29:57;;;;;;;20.42;10.73;;;;;;;;;;5075607;28;20054;-74
2021/12/27 00:32:23;;;;;;;19.92;11.07;;;;;;;;;;5104761;28;20049;-75
2021/12/27 00:34:49;;;;;;;20.17;11.10;;;;;;;;;;5102525;28;20028;-75
2021/12/27 00:37:15;;;;;;;17.63;10.57;;;;;;;;;;5099077;28;20036;-74
2021/12/27 00:39:41;;;;;;;20.05;11.27;;;;;;;;;;5103579;28;20110;-75
2021/12/27 00:42:07;;;;;;;18.48;10.48;;;;;;;;;;5107830;28;20031;-75
2021/12/27 00:44:34;;;;;;;20.77;11.10;;;;;;;;;;5102308;28;20465;-75
2021/12/27 00:47:00;;;;;;;21.15;11.25;;;;;;;;;;5100225;28;20092;-75
2021/12/27 00:49:27;;;;;;;19.85;10.57;;;;;;;;;;5102411;28;20036;-75
2021/12/27 00:51:53;;;;;;;20.17;10.82;;;;;;;;;;5093634;28;20020;-74
2021/12/27 00:54:19;;;;;;;23.13;12.07;;;;;;;;;;5103806;28;20285;-74
2021/12/27 00:56:46;;;;;;;18.95;10.13;;;;;;;;;;5100252;28;20028;-74
2021/12/27 00:59:12;;;;;;;20.05;11.88;;;;;;;;;;5095710;28;20035;-74
2021/12/27 01:01:38;;;;;;;22.55;11.43;;;;;;;;;;5101625;28;20076;-74
2021/12/27 01:04:05;;;;;;;16.73;9.90;;;;;;;;;;5103385;28;20073;-74
2021/12/27 01:06:31;;;;;;;20.92;11.02;;;;;;;;;;5103180;28;20849;-75
2021/12/27 01:08:57;;;;;;;21.83;10.77;;;;;;;;;;5108029;28;20024;-75
2021/12/27 01:16:28;;;;;;;22.08;12.40;;;;;;;;;;5101054;28;20027;-74
2021/12/27 01:18:55;;;;;;;20.10;11.45;;;;;;;;;;5106431;28;20462;-74
2021/12/27 01:21:22;;;;;;;20.60;12.23;;;;;;;;;;5103862;28;20040;-74
2021/12/27 01:23:49;;;;;;;22.50;11.68;;;;;;;;;;5100691;28;20107;-74
2021/12/27 01:26:15;;;;;;;22.25;12.15;;;;;;;;;;5105800;28;20122;-74
2021/12/27 01:28:42;;;;;;;20.13;10.85;;;;;;;;;;5101089;28;20039;-74
2021/12/27 01:31:08;;;;;;;21.05;12.45;;;;;;;;;;5107599;28;20133;-74
2021/12/27 01:33:34;;;;;;;21.30;11.95;;;;;;;;;;5100141;28;20035;-74
2021/12/27 01:36:01;;;;;;;24.02;11.98;;;;;;;;;;5108416;28;20020;-74
2021/12/27 01:38:27;;;;;;;17.48;10.45;;;;;;;;;;5106037;28;20039;-74
2021/12/27 01:40:56;;;;;;;24.55;12.45;;;;;;;;;;5105240;28;20059;-75
2021/12/27 01:43:29;;;;;;;23.80;12.52;;;;;;;;;;5104362;28;20028;-74
2021/12/27 01:45:59;;;;;;;20.95;12.25;;;;;;;;;;5108734;28;20055;-74
2021/12/27 01:48:28;;;;;;;20.13;11.32;;;;;;;;;;5105501;28;20027;-74
2021/12/27 01:50:55;;;;;;;21.38;11.40;;;;;;;;;;5097460;28;20035;-74
2021/12/27 01:53:22;;;;;;;22.45;12.48;;;;;;;;;;5096818;28;20508;-74
2021/12/27 01:55:48;;;;;;;21.85;11.38;;;;;;;;;;5100218;28;20555;-75
2021/12/27 01:58:15;;;;;;;24.25;12.57;;;;;;;;;;5106033;28;20529;-75
2021/12/27 02:00:42;;;;;;;23.77;12.02;;;;;;;;;;5106689;28;20750;-75
2021/12/27 02:03:09;;;;;;;19.92;10.73;;;;;;;;;;5103914;28;20034;-75
2021/12/27 02:05:36;;;;;;;25.02;13.52;;;;;;;;;;5102759;28;20028;-74
2021/12/27 02:08:05;;;;;;;19.33;11.45;;;;;;;;;;5096689;28;20432;-75
2021/12/27 02:10:32;;;;;;;20.95;11.77;;;;;;;;;;5103985;28;20081;-74
2021/12/27 02:12:58;;;;;;;20.13;11.75;;;;;;;;;;5103805;28;20062;-74
2021/12/27 02:15:24;;;;;;;19.92;11.65;;;;;;;;;;5104211;28;20120;-75
2021/12/27 02:17:50;;;;;;;24.67;12.05;;;;;;;;;;5094372;28;20036;-75
2021/12/27 02:20:18;;;;;;;22.52;12.27;;;;;;;;;;5104669;28;20028;-74
2021/12/27 02:22:45;;;;;;;20.27;11.23;;;;;;;;;;5108983;28;20401;-75
2021/12/27 02:25:12;;;;;;;21.77;11.65;;;;;;;;;;5103653;28;20593;-74
2021/12/27 02:27:38;;;;;;;19.38;11.07;;;;;;;;;;5104222;28;20047;-74
2021/12/27 02:30:06;;;;;;;20.00;11.48;;;;;;;;;;5099254;28;20036;-74
2021/12/27 02:32:32;;;;;;;20.20;11.90;;;;;;;;;;5105956;28;20027;-74
2021/12/27 02:34:58;;;;;;;22.13;12.05;;;;;;;;;;5101772;28;20027;-74
2021/12/27 02:37:24;;;;;;;20.88;11.82;;;;;;;;;;5104279;28;20020;-75
2021/12/27 02:39:50;;;;;;;24.73;11.75;;;;;;;;;;5104294;28;20032;-75
2021/12/27 02:42:17;;;;;;;22.13;12.27;;;;;;;;;;5109502;28;20940;-74
2021/12/27 02:44:43;;;;;;;21.58;12.82;;;;;;;;;;5092927;28;20031;-74
2021/12/27 02:47:10;;;;;;;23.13;11.68;;;;;;;;;;5103680;28;20032;-74
2021/12/27 02:49:36;;;;;;;21.70;12.13;;;;;;;;;;5096359;28;20490;-74
2021/12/27 02:52:02;;;;;;;22.95;12.48;;;;;;;;;;5098261;28;20028;-75
2021/12/27 02:54:28;;;;;;;22.17;12.05;;;;;;;;;;5106421;28;20554;-74
2021/12/27 02:56:54;;;;;;;21.90;12.88;;;;;;;;;;5104283;28;20386;-73
2021/12/27 02:59:20;;;;;;;19.48;11.48;;;;;;;;;;5106466;28;20393;-74
2021/12/27 03:01:46;;;;;;;20.63;11.15;;;;;;;;;;5099049;28;20028;-74
2021/12/27 03:04:12;;;;;;;24.30;12.32;;;;;;;;;;5098711;28;20358;-74
2021/12/27 03:06:38;;;;;;;22.75;13.10;;;;;;;;;;5103642;28;20019;-74
2021/12/27 03:09:04;;;;;;;22.77;13.02;;;;;;;;;;5105413;28;20027;-74
2021/12/27 03:11:30;;;;;;;22.55;12.52;;;;;;;;;;5099868;28;20047;-74
2021/12/27 03:13:56;;;;;;;23.55;13.15;;;;;;;;;;5097290;28;20028;-74
2021/12/27 03:16:23;;;;;;;25.25;12.18;;;;;;;;;;5100790;28;20024;-74
2021/12/27 03:18:52;;;;;;;22.70;12.32;;;;;;;;;;5095276;28;20028;-74
2021/12/27 03:21:18;;;;;;;22.48;12.02;;;;;;;;;;5103955;28;20031;-74
2021/12/27 03:23:45;;;;;;;23.50;12.52;;;;;;;;;;5106954;28;20044;-74
2021/12/27 03:26:11;;;;;;;22.55;11.75;;;;;;;;;;5098675;28;20495;-74
2021/12/27 03:28:38;;;;;;;25.00;13.18;;;;;;;;;;5099111;28;20485;-74
2021/12/27 03:31:05;;;;;;;20.88;11.63;;;;;;;;;;5097109;28;20131;-74
2021/12/27 03:33:31;;;;;;;23.27;12.27;;;;;;;;;;5100576;28;20084;-74
2021/12/27 03:36:03;;;;;;;22.27;13.18;;;;;;;;;;5100539;28;20027;-75
2021/12/27 03:38:30;;;;;;;23.85;13.13;;;;;;;;;;5107255;28;20420;-75
2021/12/27 03:40:56;;;;;;;23.10;12.75;;;;;;;;;;5100269;28;20077;-75
2021/12/27 03:43:22;;;;;;;25.30;13.40;;;;;;;;;;5105236;28;21401;-75
2021/12/27 03:45:48;;;;;;;24.38;13.98;;;;;;;;;;5098475;28;20485;-75
2021/12/27 03:48:14;;;;;;;20.15;12.70;;;;;;;;;;5101461;28;20107;-76
2021/12/27 03:50:40;;;;;;;25.38;13.50;;;;;;;;;;5105182;28;20044;-75
2021/12/27 03:53:07;;;;;;;23.48;13.82;;;;;;;;;;5102151;28;20028;-75
2021/12/27 03:55:34;;;;;;;22.27;12.32;;;;;;;;;;5101632;28;20354;-75
2021/12/27 03:58:12;;;;;;;22.00;11.98;;;;;;;;;;5103506;28;20036;-75
2021/12/27 04:01:01;;;;;;;22.33;13.30;;;;;;;;;;5099017;28;20035;-75
2021/12/27 04:03:28;;;;;;;23.25;13.40;;;;;;;;;;5095684;28;20394;-75
2021/12/27 04:05:54;;;;;;;26.92;13.57;;;;;;;;;;5105416;28;20028;-75
2021/12/27 04:08:22;;;;;;;23.30;13.35;;;;;;;;;;5098501;28;20028;-80
2021/12/27 04:10:48;;;;;;;27.67;13.40;;;;;;;;;;5104161;28;20616;-77
2021/12/27 04:13:18;;;;;;;27.42;14.18;;;;;;;;;;5101375;28;20034;-75
2021/12/27 04:15:45;;;;;;;55.10;25.38;;;;;;;;;;5105153;28;20042;-75
2021/12/27 04:18:11;;;;;;;42.85;21.63;;;;;;;;;;5100108;28;20023;-78
2021/12/27 04:20:37;;;;;;;25.42;14.30;;;;;;;;;;5102692;28;20078;-78
2021/12/27 04:23:03;;;;;;;26.38;13.07;;;;;;;;;;5096814;28;20076;-79
2021/12/27 04:25:30;;;;;;;32.17;16.02;;;;;;;;;;5093271;28;20067;-77
2021/12/27 04:27:56;;;;;;;26.52;14.43;;;;;;;;;;5111217;28;20032;-76
2021/12/27 04:30:22;;;;;;;28.73;15.10;;;;;;;;;;5101686;28;20032;-78
2021/12/27 04:32:49;;;;;;;24.08;13.13;;;;;;;;;;5094137;28;20111;-77
2021/12/27 04:35:15;;;;;;;27.25;15.82;;;;;;;;;;5100862;28;20402;-77
2021/12/27 04:37:42;;;;;;;28.73;15.45;;;;;;;;;;5104729;28;20028;-77
2021/12/27 04:40:09;;;;;;;29.50;16.42;;;;;;;;;;5100244;28;20629;-77
2021/12/27 04:42:35;;;;;;;28.63;14.30;;;;;;;;;;5102074;28;20027;-76
2021/12/27 04:45:01;;;;;;;31.77;15.05;;;;;;;;;;5099297;28;20377;-76
2021/12/27 04:47:27;;;;;;;35.97;17.35;;;;;;;;;;5104831;28;20403;-75
2021/12/27 04:49:54;;;;;;;73.63;35.63;;;;;;;;;;5098850;28;20070;-73
2021/12/27 04:52:20;;;;;;;29.77;16.10;;;;;;;;;;5104094;28;20032;-76
2021/12/27 04:54:46;;;;;;;29.23;15.70;;;;;;;;;;5098341;28;20035;-75
2021/12/27 04:57:12;;;;;;;27.40;14.55;;;;;;;;;;5108311;28;20027;-76
2021/12/27 04:59:38;;;;;;;30.52;16.30;;;;;;;;;;5110990;28;20038;-77
2021/12/27 05:02:05;;;;;;;26.98;15.35;;;;;;;;;;5109518;28;20097;-76
2021/12/27 05:04:31;;;;;;;29.13;15.20;;;;;;;;;;5108034;28;20035;-77
2021/12/27 05:06:57;;;;;;;28.00;15.27;;;;;;;;;;5110028;28;20043;-76
2021/12/27 05:09:23;;;;;;;27.70;15.88;;;;;;;;;;5110707;28;20034;-76
2021/12/27 05:11:49;;;;;;;30.00;14.48;;;;;;;;;;5103761;28;20065;-77
2021/12/27 05:14:15;;;;;;;28.30;15.45;;;;;;;;;;5105743;28;20609;-76
2021/12/27 05:16:41;;;;;;;30.70;16.52;;;;;;;;;;5097598;28;20023;-76
2021/12/27 05:19:07;;;;;;;27.05;14.73;;;;;;;;;;5099637;28;20039;-76
2021/12/27 05:21:34;;;;;;;31.98;15.68;;;;;;;;;;5102217;28;20059;-76
2021/12/27 05:24:00;;;;;;;25.52;14.32;;;;;;;;;;5114760;28;20058;-76
2021/12/27 05:26:26;;;;;;;25.65;14.45;;;;;;;;;;5105514;28;20027;-76
2021/12/27 05:28:52;;;;;;;28.42;14.80;;;;;;;;;;5109123;28;20027;-76
2021/12/27 05:31:18;;;;;;;29.52;16.08;;;;;;;;;;5105859;28;20051;-76
2021/12/27 05:33:44;;;;;;;39.67;21.00;;;;;;;;;;5105920;28;20024;-75
2021/12/27 05:36:12;;;;;;;35.65;20.02;;;;;;;;;;5105303;28;20066;-76
2021/12/27 05:38:38;;;;;;;30.05;17.17;;;;;;;;;;5112548;28;20229;-76
2021/12/27 05:41:04;;;;;;;30.88;15.68;;;;;;;;;;5105709;28;20055;-76
2021/12/27 05:43:30;;;;;;;28.65;15.30;;;;;;;;;;5110293;28;20031;-76
2021/12/27 05:45:56;;;;;;;26.00;14.55;;;;;;;;;;5100658;28;20173;-74
2021/12/27 05:48:23;;;;;;;26.40;14.40;;;;;;;;;;5106763;28;20035;-74
2021/12/27 05:50:49;;;;;;;28.75;15.93;;;;;;;;;;5100645;28;20054;-75
2021/12/27 05:53:16;;;;;;;31.20;15.57;;;;;;;;;;5105606;28;20520;-75
2021/12/27 05:55:42;;;;;;;32.78;16.15;;;;;;;;;;5106974;28;20057;-74
2021/12/27 05:58:08;;;;;;;27.73;14.93;;;;;;;;;;5100731;28;20021;-75
2021/12/27 06:00:35;;;;;;;30.30;15.23;;;;;;;;;;5109439;28;20100;-75
2021/12/27 06:03:01;;;;;;;25.48;14.40;;;;;;;;;;5100186;28;20100;-75
2021/12/27 06:05:27;;;;;;;34.33;16.13;;;;;;;;;;5110407;28;20147;-75
2021/12/27 06:07:54;;;;;;;35.60;16.08;;;;;;;;;;5104585;28;20477;-75
2021/12/27 06:10:20;;;;;;;30.80;15.52;;;;;;;;;;5105704;28;20028;-75
2021/12/27 06:12:47;;;;;;;28.73;14.68;;;;;;;;;;5103079;28;20024;-75
2021/12/27 06:15:13;;;;;;;34.28;16.58;;;;;;;;;;5102255;28;20038;-75
2021/12/27 06:17:42;;;;;;;40.45;18.17;;;;;;;;;;5106031;28;20151;-75
2021/12/27 06:20:10;;;;;;;34.33;16.58;;;;;;;;;;5099372;28;20055;-75
2021/12/27 06:22:37;;;;;;;33.72;17.10;;;;;;;;;;5096874;28;20056;-75
2021/12/27 06:25:03;;;;;;;33.88;14.73;;;;;;;;;;5096280;28;20584;-75
2021/12/27 06:27:36;;;;;;;34.00;17.00;;;;;;;;;;5107240;28;20032;-75
2021/12/27 06:30:03;;;;;;;38.17;16.60;;;;;;;;;;5103914;28;20031;-75
2021/12/27 06:32:29;;;;;;;40.38;17.17;;;;;;;;;;5105534;28;20031;-75
2021/12/27 06:34:55;;;;;;;40.60;17.35;;;;;;;;;;5091128;28;20059;-75
2021/12/27 06:37:22;;;;;;;31.05;17.45;;;;;;;;;;5094493;28;20032;-76
2021/12/27 06:39:48;;;;;;;37.78;18.33;;;;;;;;;;5101395;28;20054;-75
2021/12/27 06:42:14;;;;;;;40.13;18.13;;;;;;;;;;5104866;28;20516;-75
2021/12/27 06:44:40;;;;;;;35.20;18.27;;;;;;;;;;5102413;28;20031;-75
2021/12/27 06:47:06;;;;;;;31.98;16.52;;;;;;;;;;5112325;27;20032;-75
2021/12/27 06:49:32;;;;;;;37.22;16.92;;;;;;;;;;5099834;28;20034;-74
2021/12/27 06:51:59;;;;;;;41.45;17.92;;;;;;;;;;5106662;28;20111;-75
2021/12/27 06:54:25;;;;;;;34.03;17.13;;;;;;;;;;5107543;28;20496;-74
2021/12/27 06:56:52;;;;;;;44.08;19.10;;;;;;;;;;5101740;28;20478;-75
2021/12/27 06:59:18;;;;;;;42.75;18.52;;;;;;;;;;5107522;28;20016;-74
2021/12/27 07:01:44;;;;;;;43.63;19.35;;;;;;;;;;5105824;28;20039;-74
2021/12/27 07:04:10;;;;;;;38.25;17.88;;;;;;;;;;5103242;28;20035;-74
2021/12/27 07:06:36;;;;;;;44.45;18.45;;;;;;;;;;5103405;28;20560;-76
2021/12/27 07:09:04;;;;;;;41.95;18.70;;;;;;;;;;5100838;28;20028;-76
2021/12/27 07:11:30;;;;;;;37.90;17.80;;;;;;;;;;5095701;28;20050;-76
2021/12/27 07:13:56;;;;;;;47.70;19.15;;;;;;;;;;5095363;28;20028;-76
2021/12/27 07:16:25;;;;;;;45.00;17.77;;;;;;;;;;5096409;28;20477;-76
2021/12/27 07:18:52;;;;;;;50.42;23.00;;;;;;;;;;5099868;28;20031;-76
2021/12/27 07:21:18;;;;;;;41.33;18.65;;;;;;;;;;5104557;28;20059;-77
2021/12/27 07:23:44;;;;;;;62.10;24.52;;;;;;;;;;5109715;28;20034;-76
2021/12/27 07:26:10;;;;;;;50.28;18.55;;;;;;;;;;5102319;28;20047;-75
2021/12/27 07:28:37;;;;;;;56.10;19.38;;;;;;;;;;5109462;28;20035;-76
2021/12/27 07:31:03;;;;;;;45.78;19.10;;;;;;;;;;5094771;28;20024;-77
2021/12/27 07:33:29;;;;;;;53.63;19.70;;;;;;;;;;5104740;28;20027;-77
2021/12/27 07:35:55;;;;;;;47.20;19.65;;;;;;;;;;5099632;28;20024;-77
2021/12/27 07:38:21;;;;;;;61.55;27.35;;;;;;;;;;5107616;28;20028;-75
2021/12/27 07:40:47;;;;;;;54.55;20.98;;;;;;;;;;5106870;28;20116;-76
2021/12/27 07:43:13;;;;;;;50.22;20.42;;;;;;;;;;5096309;28;20115;-76
2021/12/27 07:45:40;;;;;;;44.38;19.95;;;;;;;;;;5101252;28;20031;-76
2021/12/27 07:48:07;;;;;;;50.67;18.05;;;;;;;;;;5104515;28;20382;-78
2021/12/27 07:50:34;;;;;;;55.55;21.58;;;;;;;;;;5095874;28;20039;-78
2021/12/27 07:53:00;;;;;;;59.25;20.75;;;;;;;;;;5098372;28;20119;-78
2021/12/27 07:55:27;;;;;;;61.00;21.40;;;;;;;;;;5106505;27;20027;-78
2021/12/27 07:57:55;;;;;;;68.90;19.63;;;;;;;;;;5099511;28;20024;-77
2021/12/27 08:00:21;;;;;;;53.38;19.35;;;;;;;;;;5103137;28;20036;-76
2021/12/27 08:02:47;;;;;;;54.92;20.77;;;;;;;;;;5100935;28;20031;-76
2021/12/27 08:05:14;;;;;;;56.05;20.30;;;;;;;;;;5095381;28;20042;-75
2021/12/27 08:07:42;;;;;;;55.30;19.85;;;;;;;;;;5104578;28;20170;-77
2021/12/27 08:10:08;;;;;;;55.53;19.08;;;;;;;;;;5105357;28;20535;-77
2021/12/27 08:12:35;;;;;;;56.25;20.98;;;;;;;;;;5104496;28;20046;-77
2021/12/27 08:15:01;;;;;;;63.75;22.00;;;;;;;;;;5100718;28;20042;-77
2021/12/27 08:17:27;;;;;;;54.60;20.65;;;;;;;;;;5099752;28;20484;-75
2021/12/27 08:19:53;;;;;;;59.65;20.67;;;;;;;;;;5101222;28;20024;-74
2021/12/27 08:22:19;;;;;;;67.82;21.33;;;;;;;;;;5111427;28;20148;-75
2021/12/27 08:24:45;;;;;;;56.63;20.85;;;;;;;;;;5103252;28;20489;-75
2021/12/27 08:27:11;;;;;;;62.22;20.75;;;;;;;;;;5107403;28;20054;-74
2021/12/27 08:29:38;;;;;;;56.75;22.55;;;;;;;;;;5093498;28;20023;-74
2021/12/27 08:32:04;;;;;;;57.80;21.63;;;;;;;;;;5106480;28;20115;-75
2021/12/27 08:34:31;;;;;;;63.90;21.83;;;;;;;;;;5106514;28;20027;-74
2021/12/27 08:36:58;;;;;;;79.05;24.52;;;;;;;;;;5110280;28;20032;-75
2021/12/27 08:39:24;;;;;;;81.13;22.77;;;;;;;;;;5107806;28;20030;-74
2021/12/27 08:41:50;;;;;;;68.95;23.58;;;;;;;;;;5102061;28;20054;-75
2021/12/27 08:44:16;;;;;;;53.90;20.63;;;;;;;;;;5111428;28;20031;-74
2021/12/27 08:46:43;;;;;;;67.55;22.35;;;;;;;;;;5109926;28;20077;-74
2021/12/27 08:49:09;;;;;;;100.70;25.50;;;;;;;;;;5109936;28;20026;-75
2021/12/27 08:51:35;;;;;;;140.75;24.00;;;;;;;;;;5104494;28;20043;-74
2021/12/27 08:54:02;;;;;;;62.70;22.45;;;;;;;;;;5100423;28;20039;-75
2021/12/27 08:56:28;;;;;;;95.88;26.13;;;;;;;;;;5105333;28;20038;-74
2021/12/27 08:58:54;;;;;;;79.45;24.48;;;;;;;;;;5111506;28;20023;-75
2021/12/27 09:01:20;;;;;;;77.53;24.75;;;;;;;;;;5110201;28;20169;-75
2021/12/27 09:03:46;;;;;;;68.00;23.77;;;;;;;;;;5112877;28;20092;-74
2021/12/27 09:06:14;;;;;;;89.32;20.98;;;;;;;;;;5106548;28;20023;-75
2021/12/27 09:08:40;;;;;;;105.00;23.30;;;;;;;;;;5107786;28;20827;-74
2021/12/27 09:11:07;;;;;;;57.75;21.52;;;;;;;;;;5106685;28;20100;-74
2021/12/27 09:13:34;;;;;;;55.88;21.73;;;;;;;;;;5109066;28;20024;-74
2021/12/27 09:16:01;;;;;;;53.40;20.33;;;;;;;;;;5109258;28;20108;-75
2021/12/27 09:18:28;;;;;;;40.60;19.25;;;;;;;;;;5102657;28;20028;-75
2021/12/27 09:20:54;;;;;;;46.53;18.85;;;;;;;;;;5098492;28;20028;-75
2021/12/27 09:23:20;;;;;;;42.10;18.48;;;;;;;;;;5106572;28;20039;-74
2021/12/27 09:25:47;;;;;;;46.97;17.63;;;;;;;;;;5106054;28;20032;-74
2021/12/27 09:28:13;;;;;;;82.93;20.13;;;;;;;;;;5106539;27;20028;-75
2021/12/27 09:30:39;;;;;;;59.33;20.33;;;;;;;;;;5095795;28;20043;-75
2021/12/27 09:33:05;;;;;;;42.22;19.27;;;;;;;;;;5100739;28;20027;-75
2021/12/27 09:35:32;;;;;;;46.30;17.98;;;;;;;;;;5109198;28;20051;-75
2021/12/27 09:37:58;;;;;;;55.45;21.10;;;;;;;;;;5102781;28;20193;-75
2021/12/27 09:40:24;;;;;;;50.53;19.83;;;;;;;;;;5112293;28;20024;-75
2021/12/27 09:42:52;;;;;;;123.28;21.13;;;;;;;;;;5101748;28;20035;-75
2021/12/27 09:45:18;;;;;;;42.65;18.45;;;;;;;;;;5099731;28;20031;-74
2021/12/27 09:47:47;;;;;;;58.33;20.33;;;;;;;;;;5105306;28;20485;-74
2021/12/27 09:50:17;;;;;;;41.58;16.75;;;;;;;;;;5111756;28;20334;-75
2021/12/27 09:52:43;;;;;;;64.63;19.48;;;;;;;;;;5107552;28;20024;-75
2021/12/27 09:55:11;;;;;;;48.72;18.88;;;;;;;;;;5114099;28;20032;-76
2021/12/27 09:57:41;;;;;;;42.13;18.10;;;;;;;;;;5103532;28;20027;-75
2021/12/27 10:00:08;;;;;;;45.03;17.80;;;;;;;;;;5101044;28;20073;-76
2021/12/27 10:02:35;;;;;;;49.80;19.30;;;;;;;;;;5111498;28;20027;-75
2021/12/27 10:05:01;;;;;;;50.05;17.98;;;;;;;;;;5102699;28;20077;-75
2021/12/27 10:07:29;;;;;;;50.97;18.73;;;;;;;;;;5100196;28;20535;-75
2021/12/27 10:09:58;;;;;;;43.25;19.98;;;;;;;;;;5103795;28;20030;-74
2021/12/27 10:12:24;;;;;;;51.03;17.92;;;;;;;;;;5109196;28;20020;-75
2021/12/27 10:14:57;;;;;;;62.88;19.90;;;;;;;;;;5098544;28;20490;-75
2021/12/27 10:17:24;;;;;;;63.90;20.40;;;;;;;;;;5106288;28;20020;-74
2021/12/27 10:19:51;;;;;;;58.38;20.33;;;;;;;;;;5101566;28;20477;-75
2021/12/27 10:22:17;;;;;;;42.63;17.92;;;;;;;;;;5099285;28;20023;-75
2021/12/27 10:24:45;;;;;;;61.65;20.75;;;;;;;;;;5106961;28;20492;-75
2021/12/27 10:27:11;;;;;;;93.03;20.45;;;;;;;;;;5102392;28;20039;-74
2021/12/27 10:29:38;;;;;;;73.53;20.77;;;;;;;;;;5065540;27;1127134;-75
2021/12/27 10:32:18;;;;;;;97.72;20.75;;;;;;;;;;5103167;27;20027;-75
2021/12/27 10:34:49;;;;;;;91.63;20.27;;;;;;;;;;5095057;27;20035;-75
2021/12/27 10:37:20;;;;;;;95.30;19.85;;;;;;;;;;5102555;28;20056;-74
2021/12/27 10:39:58;;;;;;;48.53;18.20;;;;;;;;;;5096428;28;20023;-74
2021/12/27 10:42:24;;;;;;;70.22;20.48;;;;;;;;;;5106972;28;20024;-75
2021/12/27 10:44:51;;;;;;;84.00;24.80;;;;;;;;;;5105048;28;20111;-75
2021/12/27 10:47:29;;;;;;;56.92;20.10;;;;;;;;;;5099744;28;20028;-75
2021/12/27 10:50:02;;;;;;;56.03;19.42;;;;;;;;;;5103835;28;20028;-75
2021/12/27 10:52:45;;;;;;;54.92;20.30;;;;;;;;;;5101878;28;20028;-75
2021/12/27 10:55:11;;;;;;;48.30;18.70;;;;;;;;;;5104020;28;20029;-75
2021/12/27 10:57:38;;;;;;;51.05;18.35;;;;;;;;;;5108572;28;20385;-75
2021/12/27 11:00:18;;;;;;;71.72;19.55;;;;;;;;;;5100806;28;20042;-75
2021/12/27 11:02:44;;;;;;;56.65;19.38;;;;;;;;;;5106400;28;20657;-75
2021/12/27 11:05:18;;;;;;;54.05;19.30;;;;;;;;;;5104976;28;20043;-75
2021/12/27 11:07:44;;;;;;;52.75;18.75;;;;;;;;;;5103714;28;20032;-75
2021/12/27 11:10:11;;;;;;;52.65;19.13;;;;;;;;;;5099980;28;20075;-76
2021/12/27 11:12:37;;;;;;;55.17;20.15;;;;;;;;;;5092635;28;20031;-76
2021/12/27 11:15:03;;;;;;;71.85;20.55;;;;;;;;;;5105718;28;20086;-75
2021/12/27 11:17:30;;;;;;;48.15;20.00;;;;;;;;;;5103915;28;20024;-75
2021/12/27 11:19:56;;;;;;;54.55;20.67;;;;;;;;;;5108003;28;20400;-75
2021/12/27 11:22:22;;;;;;;50.25;19.55;;;;;;;;;;5106335;28;20031;-74
2021/12/27 11:24:48;;;;;;;58.50;21.15;;;;;;;;;;5105538;28;20032;-76
2021/12/27 11:27:15;;;;;;;65.32;23.48;;;;;;;;;;5104150;28;20035;-76
2021/12/27 11:29:41;;;;;;;91.97;20.23;;;;;;;;;;5105962;28;20028;-76
2021/12/27 11:32:12;;;;;;;55.00;21.65;;;;;;;;;;5106482;28;20027;-76
2021/12/27 11:35:16;;;;;;;47.83;20.27;;;;;;;;;;5102080;28;20024;-76
2021/12/27 11:37:43;;;;;;;60.47;21.38;;;;;;;;;;5042991;28;20025;-76
2021/12/27 11:40:13;;;;;;;57.75;22.15;;;;;;;;;;5043424;28;20036;-75
2021/12/27 11:42:52;;;;;;;63.50;23.80;;;;;;;;;;5076228;28;20059;-75
2021/12/27 11:45:47;;;;;;;61.08;20.15;;;;;;;;;;5097469;28;20027;-75
2021/12/27 11:48:21;;;;;;;48.05;18.63;;;;;;;;;;5089346;28;20096;-76
2021/12/27 11:51:08;;;;;;;54.10;20.30;;;;;;;;;;5106512;28;20027;-75
2021/12/27 11:53:44;;;;;;;49.30;20.10;;;;;;;;;;5103252;28;20031;-75
2021/12/27 11:56:11;;;;;;;60.05;21.20;;;;;;;;;;5103682;28;20542;-75
2021/12/27 11:58:43;;;;;;;69.75;22.08;;;;;;;;;;5102740;28;20515;-76
2021/12/27 12:01:21;;;;;;;59.38;20.92;;;;;;;;;;5103731;28;20067;-74
2021/12/27 12:03:47;;;;;;;60.40;20.40;;;;;;;;;;5102442;28;20389;-75
2021/12/27 12:06:32;;;;;;;49.65;20.90;;;;;;;;;;5108086;28;20035;-74
2021/12/27 12:08:58;;;;;;;52.03;19.80;;;;;;;;;;5108690;28;20032;-74
2021/12/27 12:11:33;;;;;;;53.58;21.75;;;;;;;;;;5102683;28;20101;-77
2021/12/27 12:14:19;;;;;;;61.30;19.50;;;;;;;;;;5105025;28;20194;-74
2021/12/27 12:16:46;;;;;;;48.78;20.08;;;;;;;;;;5102065;28;20039;-74
2021/12/27 12:19:12;;;;;;;63.50;21.25;;;;;;;;;;5101150;28;20019;-71
2021/12/27 12:21:43;;;;;;;52.67;19.95;;;;;;;;;;5098539;28;20393;-74
2021/12/27 12:24:12;;;;;;;54.97;20.52;;;;;;;;;;5100958;28;20036;-73
2021/12/27 12:26:57;;;;;;;68.75;20.67;;;;;;;;;;5105117;28;20040;-74
2021/12/27 12:29:24;;;;;;;65.45;23.50;;;;;;;;;;5100350;28;20035;-74
2021/12/27 12:31:56;;;;;;;82.32;21.90;;;;;;;;;;5102073;28;20059;-74
2021/12/27 12:34:22;;;;;;;97.35;23.98;;;;;;;;;;5090426;28;20102;-73
2021/12/27 12:36:49;;;;;;;69.38;21.23;;;;;;;;;;5104020;28;20024;-74
2021/12/27 12:39:15;;;;;;;57.50;20.75;;;;;;;;;;5093588;28;20028;-74
2021/12/27 12:41:41;;;;;;;62.33;21.42;;;;;;;;;;5100898;28;20028;-74
2021/12/27 12:44:07;;;;;;;69.28;22.75;;;;;;;;;;5105777;28;20144;-74
2021/12/27 12:46:40;;;;;;;59.33;21.77;;;;;;;;;;5097809;28;20028;-74
2021/12/27 12:49:06;;;;;;;72.40;26.70;;;;;;;;;;5098903;28;20358;-74
2021/12/27 12:51:34;;;;;;;70.13;25.83;;;;;;;;;;5108388;28;20036;-73
2021/12/27 12:54:00;;;;;;;78.22;23.58;;;;;;;;;;5097940;28;20382;-75
2021/12/27 12:56:30;;;;;;;74.43;21.88;;;;;;;;;;5097007;28;20024;-75
2021/12/27 12:58:56;;;;;;;72.35;22.88;;;;;;;;;;5103722;28;20431;-73
2021/12/27 13:01:22;;;;;;;83.82;23.98;;;;;;;;;;5102965;28;20024;-73
2021/12/27 13:03:48;;;;;;;80.38;21.83;;;;;;;;;;5101670;28;20044;-74
2021/12/27 13:06:14;;;;;;;78.90;23.15;;;;;;;;;;5076580;28;20084;-74
2021/12/27 13:08:50;;;;;;;66.40;21.77;;;;;;;;;;5103743;28;20116;-73
2021/12/27 13:11:17;;;;;;;90.82;26.85;;;;;;;;;;5101243;28;20496;-73
2021/12/27 13:13:43;;;;;;;73.07;23.95;;;;;;;;;;5107813;28;20028;-74
2021/12/27 13:16:09;;;;;;;73.55;23.10;;;;;;;;;;5103825;28;20028;-74
2021/12/27 13:18:36;;;;;;;99.75;27.38;;;;;;;;;;5106158;28;20039;-74
2021/12/27 13:21:07;;;;;;;93.90;27.92;;;;;;;;;;5084723;28;20032;-75
2021/12/27 13:23:39;;;;;;;67.95;23.23;;;;;;;;;;5103996;28;20374;-74
2021/12/27 13:26:09;;;;;;;81.05;25.00;;;;;;;;;;5099108;28;20068;-73
2021/12/27 13:28:42;;;;;;;64.55;22.55;;;;;;;;;;5099261;28;20057;-73
2021/12/27 13:31:09;;;;;;;71.68;23.50;;;;;;;;;;5106914;28;20039;-73
2021/12/27 13:33:43;;;;;;;61.95;21.88;;;;;;;;;;5105840;28;20477;-75
2021/12/27 13:36:12;;;;;;;58.92;21.98;;;;;;;;;;5110039;27;20027;-72
2021/12/27 13:38:40;;;;;;;65.43;25.00;;;;;;;;;;5107778;28;20020;-72
2021/12/27 13:41:06;;;;;;;73.22;23.88;;;;;;;;;;5085552;28;20374;-73
2021/12/27 13:43:33;;;;;;;63.75;23.13;;;;;;;;;;5092065;28;20465;-73
2021/12/27 13:46:12;;;;;;;61.28;23.58;;;;;;;;;;5097700;28;20107;-73
2021/12/27 13:48:39;;;;;;;65.50;23.50;;;;;;;;;;5101799;28;20085;-73
2021/12/27 13:51:05;;;;;;;61.83;24.17;;;;;;;;;;5113548;27;20030;-73
2021/12/27 13:53:31;;;;;;;68.07;24.27;;;;;;;;;;5104874;28;20366;-73
2021/12/27 13:56:08;;;;;;;61.28;24.38;;;;;;;;;;5106186;28;20169;-74
2021/12/27 13:58:37;;;;;;;74.90;22.30;;;;;;;;;;5106579;28;20058;-73
2021/12/27 14:01:09;;;;;;;67.40;23.42;;;;;;;;;;5107280;28;20067;-73
2021/12/27 14:03:35;;;;;;;71.63;22.95;;;;;;;;;;5108780;28;20077;-73
2021/12/27 14:06:02;;;;;;;67.63;24.42;;;;;;;;;;5084987;28;20035;-73
2021/12/27 14:08:30;;;;;;;75.03;24.92;;;;;;;;;;5110634;27;20024;-73
2021/12/27 14:11:14;;;;;;;86.43;26.20;;;;;;;;;;5104124;28;20042;-74
2021/12/27 14:13:44;;;;;;;82.25;26.33;;;;;;;;;;5107529;28;20036;-74
2021/12/27 14:16:36;;;;;;;76.75;24.92;;;;;;;;;;5105186;27;20050;-74
2021/12/27 14:19:05;;;;;;;68.77;23.17;;;;;;;;;;5101478;28;20040;-73
2021/12/27 14:21:51;;;;;;;110.97;25.90;;;;;;;;;;5103879;28;20368;-75
2021/12/27 14:24:17;;;;;;;73.93;27.15;;;;;;;;;;5102377;28;20028;-74